sensor_id;sensor_type;location;lat;lon;timestamp;pressure;altitude;pressure_sealevel;temperature;humidity
21879;BME280;27908;42.708;23.278;2022-08-04T00:00:22;46732.94;;;17.34;100.00
21879;BME280;27908;42.708;23.278;2022-08-04T00:03:01;46658.03;;;17.23;100.00
21879;BME280;27908;42.708;23.278;2022-08-04T00:08:34;46232.25;;;17.23;100.00
21879;BME280;27908;42.708;23.278;2022-08-04T00:11:03;45994.09;;;17.20;100.00
21879;BME280;27908;42.708;23.278;2022-08-04T00:13:34;45729.22;;;17.22;100.00
21879;BME280;27908;42.708;23.278;2022-08-04T00:16:06;45592.91;;;17.29;100.00
21879;BME280;27908;42.708;23.278;2022-08-04T00:21:04;45538.69;;;17.28;100.00
21879;BME280;27908;42.708;23.278;2022-08-04T00:23:33;45503.19;;;17.25;100.00
21879;BME280;27908;42.708;23.278;2022-08-04T00:26:00;45301.69;;;17.27;100.00
21879;BME280;27908;42.708;23.278;2022-08-04T00:28:27;45116.34;;;17.26;100.00
21879;BME280;27908;42.708;23.278;2022-08-04T00:30:53;45059.38;;;17.11;100.00
21879;BME280;27908;42.708;23.278;2022-08-04T00:33:19;44962.19;;;17.22;100.00
21879;BME280;27908;42.708;23.278;2022-08-04T00:35:49;45014.22;;;17.19;100.00
21879;BME280;27908;42.708;23.278;2022-08-04T00:38:16;44946.41;;;16.97;100.00
21879;BME280;27908;42.708;23.278;2022-08-04T00:41:00;44704.81;;;16.96;100.00
21879;BME280;27908;42.708;23.278;2022-08-04T00:49:02;42722.19;;;16.81;100.00
21879;BME280;27908;42.708;23.278;2022-08-04T00:54:25;41597.19;;;16.80;100.00
21879;BME280;27908;42.708;23.278;2022-08-04T01:00:12;39859.41;;;16.68;100.00
21879;BME280;27908;42.708;23.278;2022-08-04T01:02:45;37976.78;;;16.64;100.00
21879;BME280;27908;42.708;23.278;2022-08-04T01:16:38;35032.31;;;16.41;100.00
21879;BME280;27908;42.708;23.278;2022-08-04T01:19:21;34589.13;;;16.52;100.00
21879;BME280;27908;42.708;23.278;2022-08-04T01:30:06;34561.22;;;16.57;100.00
21879;BME280;27908;42.708;23.278;2022-08-04T01:32:36;34630.44;;;16.58;100.00
21879;BME280;27908;42.708;23.278;2022-08-04T01:35:08;34503.75;;;16.37;100.00
21879;BME280;27908;42.708;23.278;2022-08-04T01:38:00;34231.44;;;16.34;100.00
21879;BME280;27908;42.708;23.278;2022-08-04T01:40:27;34056.31;;;16.26;100.00
21879;BME280;27908;42.708;23.278;2022-08-04T01:42:54;33321.28;;;16.17;100.00
21879;BME280;27908;42.708;23.278;2022-08-04T01:45:23;32572.13;;;16.19;100.00
21879;BME280;27908;42.708;23.278;2022-08-04T01:47:52;32116.22;;;15.96;100.00
21879;BME280;27908;42.708;23.278;2022-08-04T01:50:18;30168.16;;;16.01;100.00
21879;BME280;27908;42.708;23.278;2022-08-04T01:52:44;27743.59;;;16.04;100.00
21879;BME280;27908;42.708;23.278;2022-08-04T01:55:11;26084.16;;;16.13;100.00
21879;BME280;27908;42.708;23.278;2022-08-04T01:57:45;25126.56;;;16.07;100.00
21879;BME280;27908;42.708;23.278;2022-08-04T02:00:14;24780.47;;;16.20;100.00
21879;BME280;27908;42.708;23.278;2022-08-04T02:02:40;25383.47;;;16.25;100.00
21879;BME280;27908;42.708;23.278;2022-08-04T02:05:09;26427.72;;;16.25;100.00
21879;BME280;27908;42.708;23.278;2022-08-04T02:13:22;26324.59;;;16.40;100.00
21879;BME280;27908;42.708;23.278;2022-08-04T02:21:09;28328.69;;;16.19;100.00
21879;BME280;27908;42.708;23.278;2022-08-04T02:23:39;28296.53;;;16.15;100.00
21879;BME280;27908;42.708;23.278;2022-08-04T02:26:26;27657.97;;;16.18;100.00
21879;BME280;27908;42.708;23.278;2022-08-04T02:29:15;28216.19;;;16.12;100.00
21879;BME280;27908;42.708;23.278;2022-08-04T02:31:44;28189.16;;;16.09;100.00
21879;BME280;27908;42.708;23.278;2022-08-04T02:36:42;28701.72;;;15.99;100.00
21879;BME280;27908;42.708;23.278;2022-08-04T02:39:09;28583.84;;;15.97;100.00
21879;BME280;27908;42.708;23.278;2022-08-04T02:41:37;28610.19;;;15.82;100.00
21879;BME280;27908;42.708;23.278;2022-08-04T02:44:08;28414.84;;;15.90;100.00
21879;BME280;27908;42.708;23.278;2022-08-04T02:46:36;28018.91;;;15.87;100.00
21879;BME280;27908;42.708;23.278;2022-08-04T02:49:04;27521.72;;;15.80;100.00
21879;BME280;27908;42.708;23.278;2022-08-04T02:51:42;27152.06;;;15.85;100.00
21879;BME280;27908;42.708;23.278;2022-08-04T02:54:09;26890.00;;;15.86;100.00
21879;BME280;27908;42.708;23.278;2022-08-04T02:56:37;26798.09;;;15.91;100.00
21879;BME280;27908;42.708;23.278;2022-08-04T02:59:07;27135.72;;;15.77;100.00
21879;BME280;27908;42.708;23.278;2022-08-04T03:01:34;27183.28;;;15.87;100.00
21879;BME280;27908;42.708;23.278;2022-08-04T03:04:21;27132.53;;;15.81;100.00
21879;BME280;27908;42.708;23.278;2022-08-04T04:06:40;25994.84;;;16.25;100.00
21879;BME280;27908;42.708;23.278;2022-08-04T04:14:40;25585.28;;;16.64;100.00
21879;BME280;27908;42.708;23.278;2022-08-04T04:37:18;29892.09;;;17.32;100.00
21879;BME280;27908;42.708;23.278;2022-08-04T04:40:12;29877.56;;;17.45;100.00
21879;BME280;27908;42.708;23.278;2022-08-04T04:45:33;30384.69;;;17.63;100.00
21879;BME280;27908;42.708;23.278;2022-08-04T04:51:27;31549.47;;;17.61;100.00
21879;BME280;27908;42.708;23.278;2022-08-04T04:57:20;32090.94;;;17.80;100.00
21879;BME280;27908;42.708;23.278;2022-08-04T04:59:56;32418.13;;;17.74;100.00
21879;BME280;27908;42.708;23.278;2022-08-04T05:07:56;32724.34;;;17.78;100.00
21879;BME280;27908;42.708;23.278;2022-08-04T05:13:51;32468.84;;;18.03;100.00
21879;BME280;27908;42.708;23.278;2022-08-04T05:16:23;33218.75;;;18.03;100.00
21879;BME280;27908;42.708;23.278;2022-08-04T05:22:06;33729.13;;;17.90;100.00
21879;BME280;27908;42.708;23.278;2022-08-04T05:24:38;33602.91;;;18.51;100.00
21879;BME280;27908;42.708;23.278;2022-08-04T05:27:11;33584.03;;;18.68;100.00
21879;BME280;27908;42.708;23.278;2022-08-04T05:29:50;34156.38;;;18.88;100.00
21879;BME280;27908;42.708;23.278;2022-08-04T05:32:19;34121.16;;;18.94;100.00
21879;BME280;27908;42.708;23.278;2022-08-04T05:35:02;35480.34;;;18.98;97.87
21879;BME280;27908;42.708;23.278;2022-08-04T05:37:29;35717.38;;;19.23;97.61
21879;BME280;27908;42.708;23.278;2022-08-04T05:39:58;35861.94;;;19.33;97.83
21879;BME280;27908;42.708;23.278;2022-08-04T05:42:25;36046.47;;;19.46;97.26
21879;BME280;27908;42.708;23.278;2022-08-04T05:44:51;36110.94;;;19.51;96.71
21879;BME280;27908;42.708;23.278;2022-08-04T05:47:17;37120.75;;;19.64;94.75
21879;BME280;27908;42.708;23.278;2022-08-04T05:49:46;37540.41;;;19.66;94.52
21879;BME280;27908;42.708;23.278;2022-08-04T05:52:12;37452.81;;;19.91;94.38
21879;BME280;27908;42.708;23.278;2022-08-04T05:54:40;37929.38;;;19.97;93.66
21879;BME280;27908;42.708;23.278;2022-08-04T05:57:06;38573.44;;;19.87;92.64
21879;BME280;27908;42.708;23.278;2022-08-04T05:59:36;39173.75;;;19.89;92.94
21879;BME280;27908;42.708;23.278;2022-08-04T06:02:03;38862.00;;;20.00;93.87
21879;BME280;27908;42.708;23.278;2022-08-04T06:04:37;39489.47;;;19.84;94.23
21879;BME280;27908;42.708;23.278;2022-08-04T06:07:04;39227.66;;;19.93;94.06
21879;BME280;27908;42.708;23.278;2022-08-04T06:09:30;38637.31;;;20.11;95.07
21879;BME280;27908;42.708;23.278;2022-08-04T06:11:59;38807.06;;;20.23;93.94
21879;BME280;27908;42.708;23.278;2022-08-04T06:14:26;39011.44;;;20.29;93.05
21879;BME280;27908;42.708;23.278;2022-08-04T06:16:54;39145.97;;;20.55;92.39
21879;BME280;27908;42.708;23.278;2022-08-04T06:19:20;39302.44;;;20.66;91.44
21879;BME280;27908;42.708;23.278;2022-08-04T06:21:49;39239.34;;;20.97;90.82
21879;BME280;27908;42.708;23.278;2022-08-04T06:24:22;39217.94;;;21.20;90.01
21879;BME280;27908;42.708;23.278;2022-08-04T06:26:50;40065.78;;;21.24;88.86
21879;BME280;27908;42.708;23.278;2022-08-04T06:29:20;40058.91;;;21.37;88.54
21879;BME280;27908;42.708;23.278;2022-08-04T06:31:55;40846.00;;;21.38;87.66
21879;BME280;27908;42.708;23.278;2022-08-04T06:34:24;41676.47;;;21.23;87.58
21879;BME280;27908;42.708;23.278;2022-08-04T06:36:51;41589.06;;;21.19;87.61
21879;BME280;27908;42.708;23.278;2022-08-04T06:39:18;41780.09;;;21.31;87.54
21879;BME280;27908;42.708;23.278;2022-08-04T06:41:45;41609.56;;;21.50;87.91
21879;BME280;27908;42.708;23.278;2022-08-04T06:44:11;41501.91;;;21.74;87.13
21879;BME280;27908;42.708;23.278;2022-08-04T06:46:40;41551.22;;;21.94;86.52
21879;BME280;27908;42.708;23.278;2022-08-04T06:49:06;41937.56;;;21.96;85.24
21879;BME280;27908;42.708;23.278;2022-08-04T06:51:33;41842.44;;;22.16;85.24
21879;BME280;27908;42.708;23.278;2022-08-04T06:54:00;42209.78;;;22.40;84.27
21879;BME280;27908;42.708;23.278;2022-08-04T06:56:26;42076.63;;;22.49;85.05
21879;BME280;27908;42.708;23.278;2022-08-04T06:58:54;43594.19;;;22.57;81.50
21879;BME280;27908;42.708;23.278;2022-08-04T07:01:21;42943.09;;;22.76;83.55
21879;BME280;27908;42.708;23.278;2022-08-04T07:03:48;43543.81;;;22.99;80.91
21879;BME280;27908;42.708;23.278;2022-08-04T07:06:13;44085.97;;;23.12;80.26
21879;BME280;27908;42.708;23.278;2022-08-04T07:08:40;43972.47;;;23.38;80.39
21879;BME280;27908;42.708;23.278;2022-08-04T07:11:05;45689.81;;;23.42;78.18
21879;BME280;27908;42.708;23.278;2022-08-04T07:13:32;46689.44;;;23.14;78.52
21879;BME280;27908;42.708;23.278;2022-08-04T07:15:58;46632.06;;;23.00;79.58
21879;BME280;27908;42.708;23.278;2022-08-04T07:18:24;46547.00;;;23.24;78.91
21879;BME280;27908;42.708;23.278;2022-08-04T07:20:50;47350.97;;;23.09;79.37
21879;BME280;27908;42.708;23.278;2022-08-04T07:23:22;47228.03;;;23.00;81.11
21879;BME280;27908;42.708;23.278;2022-08-04T07:25:55;46629.19;;;23.55;79.24
21879;BME280;27908;42.708;23.278;2022-08-04T07:28:28;46754.50;;;24.00;77.48
21879;BME280;27908;42.708;23.278;2022-08-04T07:30:55;47118.28;;;24.35;75.50
21879;BME280;27908;42.708;23.278;2022-08-04T07:33:22;48019.84;;;24.40;73.72
21879;BME280;27908;42.708;23.278;2022-08-04T07:35:52;47673.91;;;24.66;75.02
21879;BME280;27908;42.708;23.278;2022-08-04T07:38:18;47101.00;;;25.02;74.94
21879;BME280;27908;42.708;23.278;2022-08-04T07:40:44;47703.47;;;25.25;72.69
21879;BME280;27908;42.708;23.278;2022-08-04T07:43:11;48040.91;;;25.71;71.14
21879;BME280;27908;42.708;23.278;2022-08-04T07:45:38;49048.53;;;25.98;68.43
21879;BME280;27908;42.708;23.278;2022-08-04T07:48:04;49723.66;;;25.83;69.30
21879;BME280;27908;42.708;23.278;2022-08-04T07:50:31;50440.88;;;25.97;66.93
21879;BME280;27908;42.708;23.278;2022-08-04T07:52:57;51139.47;;;25.79;66.65
21879;BME280;27908;42.708;23.278;2022-08-04T07:55:24;51329.00;;;25.81;67.08
21879;BME280;27908;42.708;23.278;2022-08-04T07:57:50;51661.69;;;25.59;67.30
21879;BME280;27908;42.708;23.278;2022-08-04T08:00:15;51875.41;;;25.74;67.16
21879;BME280;27908;42.708;23.278;2022-08-04T08:02:42;51576.44;;;25.91;69.40
21879;BME280;27908;42.708;23.278;2022-08-04T08:05:12;51607.81;;;26.07;67.85
21879;BME280;27908;42.708;23.278;2022-08-04T08:07:38;51629.06;;;26.16;67.36
21879;BME280;27908;42.708;23.278;2022-08-04T08:10:04;51968.53;;;26.51;64.39
21879;BME280;27908;42.708;23.278;2022-08-04T08:12:31;52193.22;;;26.52;64.87
21879;BME280;27908;42.708;23.278;2022-08-04T08:14:57;52188.78;;;26.65;64.86
21879;BME280;27908;42.708;23.278;2022-08-04T08:17:23;52097.84;;;26.78;64.83
21879;BME280;27908;42.708;23.278;2022-08-04T08:19:48;52135.88;;;27.05;64.48
21879;BME280;27908;42.708;23.278;2022-08-04T08:22:14;52505.59;;;26.82;64.76
21879;BME280;27908;42.708;23.278;2022-08-04T08:24:39;52789.53;;;26.69;65.52
21879;BME280;27908;42.708;23.278;2022-08-04T08:27:05;52930.50;;;26.51;66.53
21879;BME280;27908;42.708;23.278;2022-08-04T08:29:34;53438.78;;;26.23;65.18
21879;BME280;27908;42.708;23.278;2022-08-04T08:32:01;53583.03;;;25.97;66.40
21879;BME280;27908;42.708;23.278;2022-08-04T08:34:27;53467.94;;;26.21;66.28
21879;BME280;27908;42.708;23.278;2022-08-04T08:37:02;52729.47;;;26.57;68.09
21879;BME280;27908;42.708;23.278;2022-08-04T08:39:41;52650.31;;;27.11;65.23
21879;BME280;27908;42.708;23.278;2022-08-04T08:53:58;53712.22;;;27.34;62.15
21879;BME280;27908;42.708;23.278;2022-08-04T08:56:35;53976.56;;;27.32;61.29
21879;BME280;27908;42.708;23.278;2022-08-04T09:07:42;54047.34;;;27.50;62.30
21879;BME280;27908;42.708;23.278;2022-08-04T09:10:19;53824.91;;;27.98;61.33
21879;BME280;27908;42.708;23.278;2022-08-04T09:13:05;54068.19;;;28.31;60.15
21879;BME280;27908;42.708;23.278;2022-08-04T09:15:44;54248.78;;;28.70;58.22
21879;BME280;27908;42.708;23.278;2022-08-04T09:18:21;54923.97;;;28.58;56.79
21879;BME280;27908;42.708;23.278;2022-08-04T09:20:58;55362.66;;;28.68;56.62
21879;BME280;27908;42.708;23.278;2022-08-04T09:23:38;55488.25;;;29.00;56.80
21879;BME280;27908;42.708;23.278;2022-08-04T09:26:49;56090.22;;;29.05;54.93
21879;BME280;27908;42.708;23.278;2022-08-04T09:29:19;56080.69;;;29.09;56.98
21879;BME280;27908;42.708;23.278;2022-08-04T09:46:07;58909.38;;;28.50;48.18
21879;BME280;27908;42.708;23.278;2022-08-04T09:54:01;59235.09;;;28.48;49.65
21879;BME280;27908;42.708;23.278;2022-08-04T09:56:40;59317.84;;;28.69;48.27
21879;BME280;27908;42.708;23.278;2022-08-04T09:59:15;59392.00;;;28.92;46.86
21879;BME280;27908;42.708;23.278;2022-08-04T10:01:43;59328.28;;;28.99;47.17
21879;BME280;27908;42.708;23.278;2022-08-04T10:04:12;59291.94;;;29.10;48.80
21879;BME280;27908;42.708;23.278;2022-08-04T10:07:23;59328.22;;;29.54;46.53
21879;BME280;27908;42.708;23.278;2022-08-04T10:10:00;59629.56;;;29.34;46.12
21879;BME280;27908;42.708;23.278;2022-08-04T10:27:00;60153.56;;;30.22;43.02
21879;BME280;27908;42.708;23.278;2022-08-04T10:29:46;60425.94;;;30.51;39.81
21879;BME280;27908;42.708;23.278;2022-08-04T10:32:27;60540.13;;;30.74;38.97
21879;BME280;27908;42.708;23.278;2022-08-04T10:35:12;60822.31;;;30.66;37.81
21879;BME280;27908;42.708;23.278;2022-08-04T10:38:10;60891.22;;;30.67;38.46
21879;BME280;27908;42.708;23.278;2022-08-04T10:40:46;60652.31;;;31.02;40.10
21879;BME280;27908;42.708;23.278;2022-08-04T10:46:16;60924.03;;;31.51;37.20
21879;BME280;27908;42.708;23.278;2022-08-04T10:48:53;61175.41;;;30.80;38.20
21879;BME280;27908;42.708;23.278;2022-08-04T10:51:29;61130.25;;;30.85;38.34
21879;BME280;27908;42.708;23.278;2022-08-04T10:54:14;61265.25;;;30.48;37.86
21879;BME280;27908;42.708;23.278;2022-08-04T10:56:50;61283.97;;;30.51;38.89
21879;BME280;27908;42.708;23.278;2022-08-04T11:07:32;61470.84;;;30.99;36.02
21879;BME280;27908;42.708;23.278;2022-08-04T11:09:59;61425.78;;;31.10;36.64
21879;BME280;27908;42.708;23.278;2022-08-04T11:12:25;61353.81;;;31.41;35.21
21879;BME280;27908;42.708;23.278;2022-08-04T11:15:03;61667.97;;;31.25;34.05
21879;BME280;27908;42.708;23.278;2022-08-04T11:17:34;61640.75;;;31.51;33.52
21879;BME280;27908;42.708;23.278;2022-08-04T11:20:14;61751.25;;;31.83;32.85
21879;BME280;27908;42.708;23.278;2022-08-04T11:22:57;61995.63;;;31.87;31.15
21879;BME280;27908;42.708;23.278;2022-08-04T11:26:03;62051.13;;;32.08;30.18
21879;BME280;27908;42.708;23.278;2022-08-04T11:28:36;62122.06;;;31.66;31.45
21879;BME280;27908;42.708;23.278;2022-08-04T11:31:04;62117.59;;;31.85;32.18
21879;BME280;27908;42.708;23.278;2022-08-04T11:39:24;62187.47;;;32.05;31.90
21879;BME280;27908;42.708;23.278;2022-08-04T11:41:59;62171.63;;;32.21;31.46
21879;BME280;27908;42.708;23.278;2022-08-04T11:44:34;62247.50;;;31.99;31.31
21879;BME280;27908;42.708;23.278;2022-08-04T11:47:08;62269.25;;;32.52;30.58
21879;BME280;27908;42.708;23.278;2022-08-04T11:49:41;62153.34;;;32.87;30.82
21879;BME280;27908;42.708;23.278;2022-08-04T11:52:11;62138.31;;;33.27;31.01
21879;BME280;27908;42.708;23.278;2022-08-04T11:54:39;62254.16;;;33.64;29.38
21879;BME280;27908;42.708;23.278;2022-08-04T11:57:06;62304.78;;;33.59;29.87
21879;BME280;27908;42.708;23.278;2022-08-04T11:59:34;62307.06;;;33.64;28.83
21879;BME280;27908;42.708;23.278;2022-08-04T12:13:38;62464.53;;;32.28;32.17
21879;BME280;27908;42.708;23.278;2022-08-04T12:16:26;62525.38;;;31.58;33.24
21879;BME280;27908;42.708;23.278;2022-08-04T12:18:57;62475.16;;;31.08;34.53
21879;BME280;27908;42.708;23.278;2022-08-04T12:21:38;62462.94;;;31.01;35.27
21879;BME280;27908;42.708;23.278;2022-08-04T12:24:14;62459.72;;;30.41;36.67
21879;BME280;27908;42.708;23.278;2022-08-04T12:26:57;62528.34;;;30.09;36.57
21879;BME280;27908;42.708;23.278;2022-08-04T12:29:26;62479.56;;;29.79;37.89
21879;BME280;27908;42.708;23.278;2022-08-04T12:32:21;62428.88;;;30.28;39.07
21879;BME280;27908;42.708;23.278;2022-08-04T12:35:04;62441.25;;;30.14;39.23
21879;BME280;27908;42.708;23.278;2022-08-04T12:40:12;62422.88;;;30.41;38.27
21879;BME280;27908;42.708;23.278;2022-08-04T12:42:46;62453.88;;;30.50;38.20
21879;BME280;27908;42.708;23.278;2022-08-04T12:45:17;62409.38;;;30.64;37.76
21879;BME280;27908;42.708;23.278;2022-08-04T12:47:44;62405.34;;;30.52;37.55
21879;BME280;27908;42.708;23.278;2022-08-04T12:50:13;62497.72;;;30.65;37.33
21879;BME280;27908;42.708;23.278;2022-08-04T12:52:45;62416.47;;;30.68;37.53
21879;BME280;27908;42.708;23.278;2022-08-04T12:55:12;62349.25;;;31.17;39.52
21879;BME280;27908;42.708;23.278;2022-08-04T12:57:39;62336.94;;;31.78;36.65
21879;BME280;27908;42.708;23.278;2022-08-04T13:00:06;62217.16;;;32.27;37.06
21879;BME280;27908;42.708;23.278;2022-08-04T13:02:41;62283.09;;;32.82;34.00
21879;BME280;27908;42.708;23.278;2022-08-04T13:05:11;62327.00;;;32.73;33.51
21879;BME280;27908;42.708;23.278;2022-08-04T13:07:47;62293.31;;;33.10;33.15
21879;BME280;27908;42.708;23.278;2022-08-04T13:10:17;62233.63;;;33.77;32.75
21879;BME280;27908;42.708;23.278;2022-08-04T13:13:04;62352.00;;;34.40;30.01
21879;BME280;27908;42.708;23.278;2022-08-04T13:15:30;62223.50;;;34.73;30.70
21879;BME280;27908;42.708;23.278;2022-08-04T13:18:07;62168.59;;;35.61;30.07
21879;BME280;27908;42.708;23.278;2022-08-04T13:20:36;62202.34;;;36.67;28.06
21879;BME280;27908;42.708;23.278;2022-08-04T13:23:07;62310.13;;;36.82;27.55
21879;BME280;27908;42.708;23.278;2022-08-04T13:25:34;62388.63;;;36.57;27.93
21879;BME280;27908;42.708;23.278;2022-08-04T13:28:05;62288.56;;;36.65;27.93
21879;BME280;27908;42.708;23.278;2022-08-04T13:30:33;62160.00;;;38.14;27.03
21879;BME280;27908;42.708;23.278;2022-08-04T13:33:03;62135.81;;;39.10;26.23
21879;BME280;27908;42.708;23.278;2022-08-04T13:35:30;62225.16;;;39.76;26.13
21879;BME280;27908;42.708;23.278;2022-08-04T13:37:57;62331.81;;;38.95;26.30
21879;BME280;27908;42.708;23.278;2022-08-04T13:40:25;62406.44;;;39.86;25.35
21879;BME280;27908;42.708;23.278;2022-08-04T13:42:52;62397.63;;;40.52;24.66
21879;BME280;27908;42.708;23.278;2022-08-04T13:45:22;62410.00;;;41.61;24.38
21879;BME280;27908;42.708;23.278;2022-08-04T13:47:50;62457.97;;;42.36;22.99
21879;BME280;27908;42.708;23.278;2022-08-04T13:50:17;62441.75;;;43.55;23.29
21879;BME280;27908;42.708;23.278;2022-08-04T13:52:45;62523.84;;;44.42;22.56
21879;BME280;27908;42.708;23.278;2022-08-04T13:55:32;62700.22;;;44.79;21.37
21879;BME280;27908;42.708;23.278;2022-08-04T13:58:03;63024.19;;;44.26;22.46
21879;BME280;27908;42.708;23.278;2022-08-04T14:08:55;63507.25;;;43.45;21.63
21879;BME280;27908;42.708;23.278;2022-08-04T14:14:16;63435.78;;;44.87;21.19
21879;BME280;27908;42.708;23.278;2022-08-04T14:17:11;63472.25;;;45.55;20.86
21879;BME280;27908;42.708;23.278;2022-08-04T14:20:00;63597.53;;;46.85;18.93
21879;BME280;27908;42.708;23.278;2022-08-04T14:30:19;63527.66;;;48.59;19.28
21879;BME280;27908;42.708;23.278;2022-08-04T14:33:06;63724.03;;;48.26;19.92
21879;BME280;27908;42.708;23.278;2022-08-04T14:35:32;63798.47;;;47.26;19.60
21879;BME280;27908;42.708;23.278;2022-08-04T14:38:01;64028.97;;;45.54;20.82
21879;BME280;27908;42.708;23.278;2022-08-04T14:40:29;64136.38;;;44.53;21.81
21879;BME280;27908;42.708;23.278;2022-08-04T14:42:55;64142.78;;;43.75;22.87
21879;BME280;27908;42.708;23.278;2022-08-04T14:45:38;64129.09;;;41.18;24.05
21879;BME280;27908;42.708;23.278;2022-08-04T14:48:09;64097.84;;;40.23;26.16
21879;BME280;27908;42.708;23.278;2022-08-04T14:50:40;64029.56;;;37.82;27.26
21879;BME280;27908;42.708;23.278;2022-08-04T14:53:14;64109.94;;;37.10;27.76
21879;BME280;27908;42.708;23.278;2022-08-04T14:55:51;63971.81;;;36.43;28.85
21879;BME280;27908;42.708;23.278;2022-08-04T14:58:21;64025.72;;;35.94;28.80
21879;BME280;27908;42.708;23.278;2022-08-04T15:00:48;64035.47;;;34.88;30.33
21879;BME280;27908;42.708;23.278;2022-08-04T15:03:14;63923.06;;;33.58;31.24
21879;BME280;27908;42.708;23.278;2022-08-04T15:05:43;63877.03;;;32.98;32.13
21879;BME280;27908;42.708;23.278;2022-08-04T15:08:08;63848.31;;;32.52;32.83
21879;BME280;27908;42.708;23.278;2022-08-04T15:10:34;63774.72;;;32.32;33.08
21879;BME280;27908;42.708;23.278;2022-08-04T15:13:03;63779.28;;;31.98;34.23
21879;BME280;27908;42.708;23.278;2022-08-04T15:15:28;63756.47;;;31.89;33.92
21879;BME280;27908;42.708;23.278;2022-08-04T15:17:54;63724.00;;;31.57;35.10
21879;BME280;27908;42.708;23.278;2022-08-04T15:20:21;63698.06;;;31.21;36.30
21879;BME280;27908;42.708;23.278;2022-08-04T15:22:46;63728.25;;;31.05;36.80
21879;BME280;27908;42.708;23.278;2022-08-04T15:25:13;63708.31;;;31.03;36.31
21879;BME280;27908;42.708;23.278;2022-08-04T15:27:40;63639.16;;;30.41;37.56
21879;BME280;27908;42.708;23.278;2022-08-04T15:30:10;63673.59;;;30.49;37.21
21879;BME280;27908;42.708;23.278;2022-08-04T15:32:42;63693.41;;;30.40;36.92
21879;BME280;27908;42.708;23.278;2022-08-04T15:35:10;63703.66;;;30.19;37.42
21879;BME280;27908;42.708;23.278;2022-08-04T15:37:38;63701.97;;;30.23;37.70
21879;BME280;27908;42.708;23.278;2022-08-04T15:40:15;63668.34;;;30.21;38.47
21879;BME280;27908;42.708;23.278;2022-08-04T15:42:45;63589.53;;;30.18;37.25
21879;BME280;27908;42.708;23.278;2022-08-04T15:45:13;63639.69;;;30.67;37.74
21879;BME280;27908;42.708;23.278;2022-08-04T15:47:41;63705.06;;;31.82;37.10
21879;BME280;27908;42.708;23.278;2022-08-04T15:50:09;63651.06;;;33.48;35.75
21879;BME280;27908;42.708;23.278;2022-08-04T15:53:02;63789.13;;;35.79;30.66
21879;BME280;27908;42.708;23.278;2022-08-04T15:55:39;63847.75;;;37.94;29.43
21879;BME280;27908;42.708;23.278;2022-08-04T15:58:09;63942.34;;;39.31;27.29
21879;BME280;27908;42.708;23.278;2022-08-04T16:21:48;63990.72;;;43.19;23.95
21879;BME280;27908;42.708;23.278;2022-08-04T16:32:10;64009.38;;;42.32;24.86
21879;BME280;27908;42.708;23.278;2022-08-04T16:37:09;63891.16;;;42.34;26.12
21879;BME280;27908;42.708;23.278;2022-08-04T16:39:36;64035.28;;;42.54;24.61
21879;BME280;27908;42.708;23.278;2022-08-04T16:42:27;64029.81;;;42.88;24.58
21879;BME280;27908;42.708;23.278;2022-08-04T16:50:21;64221.81;;;41.17;24.59
21879;BME280;27908;42.708;23.278;2022-08-04T16:52:49;64161.13;;;39.72;26.23
21879;BME280;27908;42.708;23.278;2022-08-04T16:55:26;64066.38;;;38.41;27.81
21879;BME280;27908;42.708;23.278;2022-08-04T16:57:56;64011.00;;;37.20;27.85
21879;BME280;27908;42.708;23.278;2022-08-04T17:00:31;64007.34;;;36.33;29.55
21879;BME280;27908;42.708;23.278;2022-08-04T17:03:01;63913.06;;;35.42;31.19
21879;BME280;27908;42.708;23.278;2022-08-04T17:05:26;64007.97;;;34.74;32.03
21879;BME280;27908;42.708;23.278;2022-08-04T17:07:54;63917.25;;;33.71;32.58
21879;BME280;27908;42.708;23.278;2022-08-04T17:10:53;63821.66;;;32.70;32.73
21879;BME280;27908;42.708;23.278;2022-08-04T17:15:49;63816.22;;;31.98;34.32
21879;BME280;27908;42.708;23.278;2022-08-04T17:18:20;63811.78;;;31.24;35.29
21879;BME280;27908;42.708;23.278;2022-08-04T17:20:46;63669.69;;;30.27;37.13
21879;BME280;27908;42.708;23.278;2022-08-04T17:23:38;63719.94;;;30.07;37.74
21879;BME280;27908;42.708;23.278;2022-08-04T17:26:07;63680.66;;;30.02;38.74
21879;BME280;27908;42.708;23.278;2022-08-04T17:28:34;63675.28;;;29.92;38.38
21879;BME280;27908;42.708;23.278;2022-08-04T17:31:01;63724.41;;;29.42;38.85
21879;BME280;27908;42.708;23.278;2022-08-04T17:33:27;63639.19;;;29.31;39.51
21879;BME280;27908;42.708;23.278;2022-08-04T17:35:55;63643.66;;;28.95;40.86
21879;BME280;27908;42.708;23.278;2022-08-04T17:38:22;63676.16;;;28.96;41.12
21879;BME280;27908;42.708;23.278;2022-08-04T17:41:01;63706.66;;;28.79;41.97
21879;BME280;27908;42.708;23.278;2022-08-04T17:46:23;63537.13;;;28.50;43.18
21879;BME280;27908;42.708;23.278;2022-08-04T17:49:02;63597.00;;;28.34;44.00
21879;BME280;27908;42.708;23.278;2022-08-04T17:51:37;63543.78;;;28.26;44.54
21879;BME280;27908;42.708;23.278;2022-08-04T17:54:04;63546.78;;;27.85;45.79
21879;BME280;27908;42.708;23.278;2022-08-04T17:57:20;63504.94;;;27.83;46.51
21879;BME280;27908;42.708;23.278;2022-08-04T17:59:56;63509.53;;;27.56;47.97
21879;BME280;27908;42.708;23.278;2022-08-04T18:02:28;63490.41;;;27.33;49.67
21879;BME280;27908;42.708;23.278;2022-08-04T18:04:53;63420.56;;;27.23;50.29
21879;BME280;27908;42.708;23.278;2022-08-04T18:07:32;63480.03;;;27.00;50.30
21879;BME280;27908;42.708;23.278;2022-08-04T18:09:58;63448.59;;;26.84;51.80
21879;BME280;27908;42.708;23.278;2022-08-04T18:12:27;63461.09;;;26.71;52.14
21879;BME280;27908;42.708;23.278;2022-08-04T18:17:42;63387.91;;;26.38;52.50